createdAt,value
2023-05-18T00:00:36.512Z,11.43
2023-05-18T00:01:36.572Z,12.21
2023-05-18T00:02:36.676Z,13.76
2023-05-18T00:03:36.737Z,15.56
2023-05-18T00:04:36.683Z,15.70
2023-05-18T00:05:36.683Z,15.27
2023-05-18T00:06:36.747Z,14.92
2023-05-18T00:07:36.814Z,17.24
2023-05-18T00:08:36.867Z,20.29
2023-05-18T00:09:36.947Z,22.26
2023-05-18T00:10:37.049Z,19.48
2023-05-18T00:11:37.029Z,21.53
2023-05-18T00:12:37.099Z,25.00
2023-05-18T00:13:37.158Z,27.01
2023-05-18T00:14:37.269Z,21.45
2023-05-18T00:15:37.318Z,19.93
2023-05-18T00:16:37.427Z,22.33
2023-05-18T00:17:37.484Z,27.20
2023-05-18T00:18:37.496Z,29.11
2023-05-18T00:19:37.549Z,24.26
2023-05-18T00:20:37.629Z,12.20
2023-05-18T00:21:37.660Z,10.48
2023-05-18T00:22:37.691Z,8.63
2023-05-18T00:23:37.740Z,10.19
2023-05-18T00:24:37.743Z,11.46
2023-05-18T00:25:37.796Z,13.03
2023-05-18T00:26:37.852Z,14.44
2023-05-18T00:27:37.873Z,14.46
2023-05-18T00:28:37.922Z,14.38
2023-05-18T00:29:37.969Z,15.62
2023-05-18T00:30:38.000Z,20.60
2023-05-18T00:31:38.075Z,24.86
2023-05-18T00:32:38.161Z,23.11
2023-05-18T00:33:38.129Z,25.77
2023-05-18T00:34:38.352Z,28.84
2023-05-18T00:35:38.662Z,33.65
2023-05-18T00:36:38.350Z,31.38
2023-05-18T00:37:38.393Z,23.90
2023-05-18T00:38:38.454Z,22.13
2023-05-18T00:39:38.470Z,21.93
2023-05-18T00:40:38.515Z,20.28
2023-05-18T00:41:38.558Z,19.80
2023-05-18T00:42:38.611Z,19.02
2023-05-18T00:43:38.705Z,17.71
2023-05-18T00:44:38.722Z,13.16
2023-05-18T00:45:38.779Z,12.95
2023-05-18T00:46:38.832Z,14.40
2023-05-18T00:47:38.843Z,15.05
2023-05-18T00:48:38.772Z,17.16
2023-05-18T00:49:38.780Z,18.92
2023-05-18T00:50:38.828Z,11.00
2023-05-18T00:51:38.856Z,9.93
2023-05-18T00:52:38.850Z,8.98
2023-05-18T00:53:38.883Z,8.62
2023-05-18T00:54:38.913Z,7.20
2023-05-18T00:55:38.915Z,7.16
2023-05-18T00:56:38.889Z,7.21
2023-05-18T00:57:38.909Z,6.18
2023-05-18T00:58:38.990Z,5.72
2023-05-18T00:59:38.984Z,6.75
2023-05-18T01:00:39.043Z,7.46
2023-05-18T01:01:39.155Z,8.31
2023-05-18T01:02:39.240Z,9.00
2023-05-18T01:03:39.214Z,9.43
2023-05-18T01:04:39.148Z,10.97
2023-05-18T01:05:39.155Z,12.72
2023-05-18T01:06:39.180Z,12.20
2023-05-18T01:07:39.158Z,12.84
2023-05-18T01:08:39.192Z,16.04
2023-05-18T01:09:39.193Z,15.84
2023-05-18T01:10:39.221Z,13.97
2023-05-18T01:11:39.279Z,14.73
2023-05-18T01:12:39.252Z,17.03
2023-05-18T01:13:39.257Z,19.65
2023-05-18T01:14:39.283Z,15.56
2023-05-18T01:15:39.313Z,14.51
2023-05-18T01:16:39.392Z,13.02
2023-05-18T01:17:39.375Z,13.76
2023-05-18T01:18:39.355Z,15.94
2023-05-18T01:19:39.348Z,15.68
2023-05-18T01:20:39.366Z,16.44
2023-05-18T01:21:39.381Z,16.14
2023-05-18T01:22:39.360Z,15.87
2023-05-18T01:23:39.322Z,17.15
2023-05-18T01:24:39.342Z,16.32
2023-05-18T01:25:39.373Z,14.87
2023-05-18T01:26:39.379Z,16.15
2023-05-18T01:27:39.393Z,15.31
2023-05-18T01:28:39.372Z,16.03
2023-05-18T01:29:39.361Z,15.85
2023-05-18T01:30:39.382Z,15.97
2023-05-18T01:31:39.414Z,17.05
2023-05-18T01:32:39.432Z,15.45
2023-05-18T01:33:39.399Z,15.63
2023-05-18T01:34:39.373Z,12.79
2023-05-18T01:35:39.387Z,12.69
2023-05-18T01:36:39.409Z,14.84
2023-05-18T01:37:39.389Z,16.39
2023-05-18T01:38:40.604Z,16.21
2023-05-18T01:39:39.369Z,15.46
2023-05-18T01:40:39.388Z,11.12
2023-05-18T01:41:39.392Z,10.22
2023-05-18T01:42:39.351Z,9.70
2023-05-18T01:43:39.319Z,8.50
2023-05-18T01:44:39.322Z,8.12
2023-05-18T01:45:39.335Z,8.47
2023-05-18T01:46:39.341Z,10.35
2023-05-18T01:47:39.406Z,11.60
2023-05-18T01:48:39.345Z,11.05
2023-05-18T01:49:39.353Z,11.75
2023-05-18T01:50:39.328Z,13.42
2023-05-18T01:51:39.319Z,12.93
2023-05-18T01:52:39.301Z,14.91
2023-05-18T01:53:39.307Z,17.32
2023-05-18T01:54:39.344Z,20.25
2023-05-18T01:55:39.283Z,25.95
2023-05-18T01:56:39.263Z,28.46
2023-05-18T01:57:39.289Z,30.08
2023-05-18T01:58:39.252Z,33.47
2023-05-18T01:59:39.245Z,38.49
2023-05-18T02:00:39.226Z,32.05
2023-05-18T02:01:39.258Z,32.43
2023-05-18T02:02:39.302Z,26.57
2023-05-18T02:03:39.382Z,26.06
2023-05-18T02:04:39.204Z,32.49
2023-05-18T02:05:39.219Z,33.77
2023-05-18T02:06:39.226Z,36.13
2023-05-18T02:07:39.180Z,34.19
2023-05-18T02:08:39.189Z,30.88
2023-05-18T02:09:39.192Z,34.63
2023-05-18T02:10:39.187Z,37.91
2023-05-18T02:11:39.160Z,34.98
2023-05-18T02:12:39.165Z,32.79
2023-05-18T02:13:39.154Z,32.13
2023-05-18T02:14:39.187Z,33.40
2023-05-18T02:15:39.211Z,39.01
2023-05-18T02:16:39.252Z,37.39
2023-05-18T02:17:39.235Z,38.63
2023-05-18T02:18:39.142Z,37.82
2023-05-18T02:19:39.138Z,28.79
2023-05-18T02:20:39.147Z,27.75
2023-05-18T02:21:39.113Z,24.76
2023-05-18T02:22:39.132Z,21.93
2023-05-18T02:23:39.099Z,19.38
2023-05-18T02:24:39.080Z,22.98
2023-05-18T02:25:39.093Z,23.14
2023-05-18T02:26:39.084Z,22.58
2023-05-18T02:27:39.085Z,21.87
2023-05-18T02:28:39.042Z,21.49
2023-05-18T02:29:39.060Z,23.07
2023-05-18T02:30:39.030Z,24.41
2023-05-18T02:31:39.167Z,24.95
2023-05-18T02:32:39.098Z,25.61
2023-05-18T02:33:38.998Z,30.40
2023-05-18T02:34:39.042Z,36.20
2023-05-18T02:35:39.037Z,41.32
2023-05-18T02:36:38.994Z,45.19
2023-05-18T02:37:38.978Z,47.60
2023-05-18T02:38:39.000Z,60.08
2023-05-18T02:39:38.978Z,65.05
2023-05-18T02:40:38.972Z,62.35
2023-05-18T02:41:38.969Z,67.02
2023-05-18T02:42:38.979Z,77.94
2023-05-18T02:43:38.920Z,76.93
2023-05-18T02:44:38.964Z,79.37
2023-05-18T02:45:38.942Z,88.69
2023-05-18T02:46:38.941Z,92.68
2023-05-18T02:47:38.965Z,89.69
2023-05-18T02:48:38.937Z,102.47
2023-05-18T02:49:38.926Z,112.94
2023-05-18T02:50:38.895Z,116.81
2023-05-18T02:51:38.905Z,112.25
2023-05-18T02:52:38.900Z,106.21
2023-05-18T02:53:38.867Z,104.34
2023-05-18T02:54:38.873Z,95.04
2023-05-18T02:55:38.885Z,88.50
2023-05-18T02:56:38.864Z,83.09
2023-05-18T02:57:38.875Z,72.02
2023-05-18T02:58:38.916Z,70.50
2023-05-18T02:59:38.838Z,67.99
2023-05-18T03:00:38.815Z,61.21
2023-05-18T03:01:38.931Z,60.51
2023-05-18T03:02:38.954Z,69.34
2023-05-18T03:03:38.869Z,74.19
2023-05-18T03:04:38.833Z,82.65
2023-05-18T03:05:38.834Z,93.18
2023-05-18T03:06:38.788Z,98.06
2023-05-18T03:07:38.814Z,87.81
2023-05-18T03:08:38.794Z,60.73
2023-05-18T03:09:38.778Z,48.64
2023-05-18T03:10:38.766Z,44.45
2023-05-18T03:11:38.775Z,55.36
2023-05-18T03:12:38.732Z,64.11
2023-05-18T03:13:38.731Z,63.58
2023-05-18T03:14:38.719Z,65.06
2023-05-18T03:15:38.725Z,64.28
2023-05-18T03:16:39.054Z,73.15
2023-05-18T03:17:38.879Z,88.79
2023-05-18T03:18:38.864Z,91.20
2023-05-18T03:19:38.876Z,75.96
2023-05-18T03:20:38.944Z,49.44
2023-05-18T03:21:38.961Z,23.64
2023-05-18T03:22:39.008Z,18.73
2023-05-18T03:23:39.038Z,21.58
2023-05-18T03:24:39.073Z,24.73
2023-05-18T03:25:39.117Z,18.92
2023-05-18T03:26:39.084Z,13.13
2023-05-18T03:27:39.104Z,12.35
2023-05-18T03:28:39.125Z,11.00
2023-05-18T03:29:39.135Z,15.73
2023-05-18T03:30:39.138Z,17.75
2023-05-18T03:31:39.279Z,20.08
2023-05-18T03:32:39.289Z,26.71
2023-05-18T03:33:39.276Z,32.41
2023-05-18T03:34:39.307Z,34.48
2023-05-18T03:35:39.364Z,40.57
2023-05-18T03:36:39.348Z,46.17
2023-05-18T03:37:39.328Z,49.21
2023-05-18T03:38:39.442Z,51.52
2023-05-18T03:39:39.385Z,58.97
2023-05-18T03:40:39.441Z,65.64
2023-05-18T03:41:39.459Z,66.82
2023-05-18T03:42:39.499Z,57.82
2023-05-18T03:43:39.573Z,49.78
2023-05-18T03:44:39.700Z,51.82
2023-05-18T03:45:39.742Z,61.60
2023-05-18T03:46:39.833Z,59.54
2023-05-18T03:47:39.809Z,53.27
2023-05-18T03:48:39.831Z,53.09
2023-05-18T03:49:39.832Z,54.78
2023-05-18T03:50:39.860Z,56.14
2023-05-18T03:51:39.882Z,57.73
2023-05-18T03:52:39.881Z,61.20
2023-05-18T03:53:39.897Z,68.57
2023-05-18T03:54:39.882Z,51.35
2023-05-18T03:55:39.949Z,37.66
2023-05-18T03:56:40.006Z,37.50
2023-05-18T03:57:40.027Z,35.31
2023-05-18T03:58:40.039Z,30.65
2023-05-18T03:59:40.038Z,30.76
2023-05-18T04:00:40.055Z,36.03
2023-05-18T04:01:40.039Z,29.93
2023-05-18T04:02:40.134Z,19.44
2023-05-18T04:03:40.168Z,16.27
2023-05-18T04:04:40.064Z,15.01
2023-05-18T04:05:40.117Z,14.51
2023-05-18T04:06:40.132Z,12.27
2023-05-18T04:07:40.176Z,11.00
2023-05-18T04:08:40.316Z,10.73
2023-05-18T04:09:40.380Z,11.21
2023-05-18T04:10:40.373Z,12.76
2023-05-18T04:11:40.518Z,15.34
2023-05-18T04:12:40.523Z,17.73
2023-05-18T04:13:40.542Z,20.58
2023-05-18T04:14:40.596Z,13.55
2023-05-18T04:15:40.676Z,9.67
2023-05-18T04:16:40.803Z,7.91
2023-05-18T04:17:40.709Z,6.64
2023-05-18T04:18:40.713Z,4.38
2023-05-18T04:19:40.673Z,3.94
2023-05-18T04:20:40.697Z,3.83
2023-05-18T04:21:40.701Z,3.98
2023-05-18T04:22:40.748Z,4.00
2023-05-18T04:23:40.844Z,4.53
2023-05-18T04:24:40.824Z,4.20
2023-05-18T04:25:40.851Z,3.80
2023-05-18T04:26:40.813Z,4.24
2023-05-18T04:27:40.840Z,4.07
2023-05-18T04:28:40.842Z,3.95
2023-05-18T04:29:40.858Z,3.80
2023-05-18T04:30:40.910Z,3.24
2023-05-18T04:31:40.929Z,3.26
2023-05-18T04:32:40.965Z,3.40
2023-05-18T04:33:40.929Z,3.76
2023-05-18T04:34:40.996Z,4.23
2023-05-18T04:35:40.993Z,4.95
2023-05-18T04:36:40.975Z,5.09
2023-05-18T04:37:41.040Z,5.54
2023-05-18T04:38:42.003Z,6.67
2023-05-18T04:39:41.038Z,6.16
2023-05-18T04:40:41.045Z,5.44
2023-05-18T04:41:41.034Z,5.31
2023-05-18T04:42:41.062Z,5.90
2023-05-18T04:43:41.066Z,5.25
2023-05-18T04:44:41.061Z,5.67
2023-05-18T04:45:41.087Z,6.28
2023-05-18T04:46:41.076Z,7.42
2023-05-18T04:47:41.108Z,7.90
2023-05-18T04:48:41.133Z,8.40
2023-05-18T04:49:41.148Z,8.74
2023-05-18T04:50:41.168Z,10.13
2023-05-18T04:51:41.183Z,10.91
2023-05-18T04:52:41.200Z,10.33
2023-05-18T04:53:41.232Z,10.27
2023-05-18T04:54:41.243Z,12.05
2023-05-18T04:55:41.295Z,13.29
2023-05-18T04:56:41.295Z,11.29
2023-05-18T04:57:41.296Z,9.28
2023-05-18T04:58:41.368Z,8.09
2023-05-18T04:59:41.370Z,7.31
2023-05-18T05:00:41.381Z,8.22
2023-05-18T05:03:10.539Z,0.50
2023-05-18T05:04:01.567Z,0.50
2023-05-18T05:05:01.515Z,0.50
2023-05-18T05:06:01.571Z,0.50
2023-05-18T05:07:01.583Z,0.50
2023-05-18T05:08:01.492Z,0.50
2023-05-18T05:09:01.497Z,0.50
2023-05-18T05:10:01.553Z,0.52
2023-05-18T05:11:01.491Z,0.51
2023-05-18T05:12:01.477Z,0.54
2023-05-18T05:13:01.478Z,0.50
2023-05-18T05:14:01.521Z,0.52
2023-05-18T05:15:01.457Z,0.57
2023-05-18T05:16:01.550Z,0.53
2023-05-18T05:17:01.444Z,0.47
2023-05-18T05:18:01.497Z,0.50
2023-05-18T05:19:01.549Z,0.63
2023-05-18T05:20:01.429Z,0.63
2023-05-18T05:21:01.457Z,0.72
2023-05-18T05:22:01.430Z,0.62
2023-05-18T05:23:01.478Z,0.56
2023-05-18T05:24:01.385Z,0.59
2023-05-18T05:25:01.642Z,0.60
2023-05-18T05:26:01.433Z,0.67
2023-05-18T05:27:01.409Z,0.57
2023-05-18T05:28:01.404Z,0.58
2023-05-18T05:29:01.356Z,0.70
2023-05-18T05:30:01.354Z,0.86
2023-05-18T05:31:01.382Z,0.67
2023-05-18T05:32:01.432Z,0.58
2023-05-18T05:33:01.375Z,0.48
2023-05-18T05:34:01.363Z,0.47
2023-05-18T05:35:01.366Z,0.50
2023-05-18T05:36:01.336Z,0.55
2023-05-18T05:37:01.287Z,0.68
2023-05-18T05:38:01.285Z,0.64
2023-05-18T05:39:01.295Z,0.49
2023-05-18T05:40:01.279Z,0.50
2023-05-18T05:41:01.304Z,0.42
2023-05-18T05:42:01.268Z,0.48
2023-05-18T05:43:01.229Z,0.50
2023-05-18T05:44:01.249Z,0.55
2023-05-18T05:45:01.222Z,0.66
2023-05-18T05:46:16.275Z,0.49
2023-05-18T05:47:01.293Z,0.49
2023-05-18T05:48:01.280Z,0.47
2023-05-18T05:49:01.228Z,0.43
2023-05-18T05:50:01.208Z,0.47
2023-05-18T05:51:01.220Z,0.52
2023-05-18T05:52:01.175Z,0.52
2023-05-18T05:53:01.173Z,0.50
2023-05-18T05:54:01.172Z,0.53
2023-05-18T05:55:01.185Z,0.67
2023-05-18T05:56:01.192Z,0.76
2023-05-18T05:57:01.173Z,0.81
2023-05-18T05:58:01.197Z,0.66
2023-05-18T05:59:01.123Z,0.66
2023-05-18T06:00:01.140Z,0.58
2023-05-18T06:01:01.185Z,0.58
2023-05-18T06:02:01.132Z,0.71
2023-05-18T06:03:01.171Z,0.66
2023-05-18T06:04:01.166Z,0.52
2023-05-18T06:05:01.067Z,0.44
2023-05-18T06:06:01.092Z,0.47
2023-05-18T06:07:01.137Z,0.58
2023-05-18T06:08:01.085Z,0.48
2023-05-18T06:09:01.064Z,0.53
2023-05-18T06:10:01.078Z,0.60
2023-05-18T06:11:01.120Z,0.49
2023-05-18T06:12:01.064Z,0.50
2023-05-18T06:13:01.066Z,0.53
2023-05-18T06:14:01.065Z,0.50
2023-05-18T06:15:01.036Z,0.50
2023-05-18T06:16:01.089Z,0.50
2023-05-18T06:17:01.175Z,0.51
2023-05-18T06:18:01.043Z,0.67
2023-05-18T06:19:01.073Z,0.84
2023-05-18T06:20:01.010Z,0.89
2023-05-18T06:21:00.960Z,0.71
2023-05-18T06:22:00.976Z,0.70
2023-05-18T06:23:00.967Z,0.77
2023-05-18T06:24:01.648Z,1.05
2023-05-18T06:25:00.971Z,1.12
2023-05-18T06:26:00.966Z,0.98
2023-05-18T06:27:00.969Z,1.05
2023-05-18T06:28:00.930Z,0.89
2023-05-18T06:29:00.937Z,0.71
2023-05-18T06:30:00.933Z,0.73
2023-05-18T06:31:00.937Z,0.79
2023-05-18T06:32:00.951Z,0.65
2023-05-18T06:33:00.954Z,0.79
2023-05-18T06:34:00.930Z,0.84
2023-05-18T06:35:00.878Z,0.79
2023-05-18T06:36:00.951Z,0.53
2023-05-18T06:37:00.897Z,0.53
2023-05-18T06:38:00.868Z,0.57
2023-05-18T06:39:00.914Z,0.72
2023-05-18T06:40:00.928Z,0.71
2023-05-18T06:41:00.968Z,0.81
2023-05-18T06:42:00.996Z,1.03
2023-05-18T06:43:01.105Z,0.85
2023-05-18T06:44:01.036Z,0.92
2023-05-18T06:45:01.089Z,0.54
2023-05-18T06:46:01.128Z,0.50
2023-05-18T06:47:01.179Z,0.56
2023-05-18T06:48:01.242Z,0.50
2023-05-18T06:49:01.162Z,0.51
2023-05-18T06:50:01.247Z,0.50
2023-05-18T06:51:01.250Z,0.57
2023-05-18T06:52:01.329Z,0.64
2023-05-18T06:53:01.296Z,0.53
2023-05-18T06:54:01.332Z,0.41
2023-05-18T06:55:01.411Z,0.50
2023-05-18T06:56:01.409Z,0.57
2023-05-18T06:57:01.435Z,0.61
2023-05-18T06:58:01.439Z,0.72
2023-05-18T06:59:01.497Z,1.09
2023-05-18T07:00:01.605Z,1.36
2023-05-18T07:01:01.606Z,1.67
2023-05-18T07:02:01.713Z,2.06
2023-05-18T07:03:01.770Z,1.44
2023-05-18T07:04:01.723Z,0.67
2023-05-18T07:05:01.696Z,0.44
2023-05-18T07:06:01.698Z,0.45
2023-05-18T07:07:01.772Z,0.51
2023-05-18T07:08:01.787Z,0.50
2023-05-18T07:09:01.778Z,0.54
2023-05-18T07:10:01.834Z,0.65
2023-05-18T07:11:01.838Z,0.80
2023-05-18T07:12:01.899Z,0.90
2023-05-18T07:13:01.862Z,0.91
2023-05-18T07:14:01.832Z,1.17
2023-05-18T07:15:01.871Z,1.53
2023-05-18T07:16:01.891Z,1.19
2023-05-18T07:17:03.072Z,0.98
2023-05-18T07:18:01.962Z,1.06
2023-05-18T07:19:01.977Z,1.42
2023-05-18T07:20:01.972Z,1.35
2023-05-18T07:21:02.015Z,0.91
2023-05-18T07:22:02.021Z,0.93
2023-05-18T07:23:02.112Z,0.67
2023-05-18T07:24:02.083Z,0.50
2023-05-18T07:25:02.205Z,0.56
2023-05-18T07:26:02.201Z,0.52
2023-05-18T07:27:02.231Z,0.51
2023-05-18T07:28:02.274Z,0.57
2023-05-18T07:29:02.265Z,0.49
2023-05-18T07:30:02.430Z,0.52
2023-05-18T07:31:02.343Z,0.70
2023-05-18T07:32:02.537Z,0.73
2023-05-18T07:33:02.377Z,0.63
2023-05-18T07:34:02.380Z,0.68
2023-05-18T07:35:02.362Z,0.70
2023-05-18T07:36:02.421Z,0.65
2023-05-18T07:37:02.478Z,0.67
2023-05-18T07:38:02.526Z,0.68
2023-05-18T07:39:02.596Z,0.75
2023-05-18T07:40:02.621Z,0.74
2023-05-18T07:41:02.701Z,0.78
2023-05-18T07:42:02.761Z,0.69
2023-05-18T07:43:02.824Z,0.59
2023-05-18T07:44:02.828Z,0.66
2023-05-18T07:45:02.876Z,0.70
2023-05-18T07:46:02.966Z,0.44
2023-05-18T07:47:03.110Z,0.45
2023-05-18T07:48:03.148Z,0.50
2023-05-18T07:49:03.065Z,0.63
2023-05-18T07:50:03.080Z,0.87
2023-05-18T07:51:03.138Z,0.57
2023-05-18T07:52:03.168Z,0.51
2023-05-18T07:53:03.196Z,0.47
2023-05-18T07:54:03.244Z,0.52
2023-05-18T07:55:03.265Z,0.52
2023-05-18T07:56:03.325Z,0.54
2023-05-18T07:57:03.339Z,0.46
2023-05-18T07:58:03.389Z,0.54
2023-05-18T07:59:03.392Z,0.51
2023-05-18T08:00:03.405Z,0.50
2023-05-18T08:01:03.403Z,0.60
2023-05-18T08:02:03.652Z,0.70
2023-05-18T08:03:03.599Z,0.85
2023-05-18T08:04:03.706Z,0.88
2023-05-18T08:05:03.598Z,1.01
2023-05-18T08:06:03.597Z,1.17
2023-05-18T08:07:03.665Z,0.64
2023-05-18T08:08:06.426Z,0.57
2023-05-18T08:09:14.290Z,0.42
2023-05-18T08:10:03.646Z,0.37
2023-05-18T08:11:03.625Z,0.34
2023-05-18T08:12:03.665Z,0.34
2023-05-18T08:13:03.600Z,0.38
2023-05-18T08:14:03.615Z,0.38
2023-05-18T08:15:03.622Z,0.51
2023-05-18T08:16:11.244Z,0.50
2023-05-18T08:17:04.748Z,0.50
2023-05-18T08:18:03.688Z,0.50
2023-05-18T08:19:03.625Z,0.34
2023-05-18T08:20:03.543Z,0.34
2023-05-18T08:21:03.537Z,0.34
2023-05-18T08:22:03.569Z,0.34
2023-05-18T08:23:03.565Z,0.34
2023-05-18T08:24:03.554Z,0.34
2023-05-18T08:25:03.533Z,0.52
2023-05-18T08:26:03.533Z,0.58
2023-05-18T08:27:03.541Z,0.54
2023-05-18T08:28:03.483Z,0.50
2023-05-18T08:29:03.547Z,0.42
2023-05-18T08:30:03.659Z,0.45
2023-05-18T08:31:03.627Z,0.48
2023-05-18T08:32:03.698Z,0.56
2023-05-18T08:33:03.750Z,0.81
2023-05-18T08:34:03.673Z,0.69
2023-05-18T08:35:03.705Z,0.70
2023-05-18T08:36:03.699Z,1.03
2023-05-18T08:37:03.718Z,1.26
2023-05-18T08:38:05.673Z,1.06
2023-05-18T08:39:03.719Z,0.78
2023-05-18T08:40:03.781Z,0.74
2023-05-18T08:41:03.738Z,0.75
2023-05-18T08:42:03.781Z,0.49
2023-05-18T08:43:03.869Z,0.50
2023-05-18T08:44:03.863Z,0.56
2023-05-18T08:45:03.868Z,0.75
2023-05-18T08:46:03.929Z,0.97
2023-05-18T08:47:03.981Z,1.08
2023-05-18T08:48:04.076Z,0.96
2023-05-18T08:49:04.050Z,0.79
2023-05-18T08:50:03.941Z,0.50
2023-05-18T08:51:04.040Z,0.58
2023-05-18T08:52:04.054Z,0.72
2023-05-18T08:53:04.065Z,0.66
2023-05-18T08:54:04.080Z,0.64
2023-05-18T08:55:04.146Z,0.57
2023-05-18T08:56:04.161Z,0.68
2023-05-18T08:57:14.816Z,0.76
2023-05-18T08:58:04.169Z,0.77
2023-05-18T08:59:04.123Z,0.82
2023-05-18T09:00:04.108Z,0.77
2023-05-18T09:01:04.127Z,0.82
2023-05-18T09:02:04.212Z,1.13
2023-05-18T09:03:04.123Z,1.27
2023-05-18T09:04:04.104Z,1.28
2023-05-18T09:05:04.127Z,1.35
2023-05-18T09:06:04.117Z,1.41
2023-05-18T09:07:04.110Z,1.70
2023-05-18T09:08:04.063Z,1.30
2023-05-18T09:09:04.074Z,1.12
2023-05-18T09:10:04.086Z,1.05
2023-05-18T09:11:04.041Z,0.95
2023-05-18T09:12:04.078Z,0.75
2023-05-18T09:13:04.061Z,0.60
2023-05-18T09:14:04.063Z,0.65
2023-05-18T09:15:04.072Z,0.83
2023-05-18T09:16:04.087Z,0.87
2023-05-18T09:17:04.105Z,1.20
2023-05-18T09:18:04.205Z,1.57
2023-05-18T09:19:04.259Z,1.69
2023-05-18T09:20:04.248Z,1.82
2023-05-18T09:21:04.317Z,2.27
2023-05-18T09:22:04.277Z,1.24
2023-05-18T09:23:04.339Z,1.12
2023-05-18T09:24:04.390Z,1.01
2023-05-18T09:25:04.396Z,0.50
2023-05-18T09:26:04.440Z,0.61
2023-05-18T09:27:04.491Z,0.91
2023-05-18T09:28:04.572Z,0.69
2023-05-18T09:29:04.587Z,0.60
2023-05-18T09:30:04.608Z,0.48
2023-05-18T09:31:04.571Z,0.44
2023-05-18T09:32:04.924Z,0.45
2023-05-18T09:33:04.763Z,0.52
2023-05-18T09:34:04.719Z,0.52
2023-05-18T09:35:04.739Z,0.44
2023-05-18T09:36:04.730Z,0.40
2023-05-18T09:37:04.762Z,0.42
2023-05-18T09:38:04.790Z,0.38
2023-05-18T09:39:04.835Z,0.52
2023-05-18T09:40:04.875Z,0.54
2023-05-18T09:41:04.847Z,0.63
2023-05-18T09:42:04.905Z,0.63
2023-05-18T09:43:04.919Z,0.91
2023-05-18T09:44:04.917Z,1.12
2023-05-18T09:45:04.991Z,1.00
2023-05-18T09:46:04.984Z,1.13
2023-05-18T09:47:05.080Z,1.47
2023-05-18T09:48:05.092Z,1.77
2023-05-18T09:49:05.075Z,2.13
2023-05-18T09:50:05.176Z,1.38
2023-05-18T09:51:05.200Z,1.32
2023-05-18T09:52:05.232Z,1.29
2023-05-18T09:53:05.272Z,1.79
2023-05-18T09:54:05.290Z,2.07
2023-05-18T09:55:05.311Z,2.76
2023-05-18T09:56:05.370Z,2.99
2023-05-18T09:58:05.392Z,3.34
2023-05-18T09:59:05.376Z,2.08
2023-05-18T10:00:05.345Z,1.82
2023-05-18T10:01:05.383Z,2.00
2023-05-18T10:02:05.363Z,2.75
2023-05-18T10:03:05.438Z,3.16
2023-05-18T10:04:05.464Z,4.18
2023-05-18T10:05:05.311Z,4.78
2023-05-18T10:06:05.337Z,4.32
2023-05-18T10:07:05.351Z,3.93
2023-05-18T10:08:05.287Z,3.61
2023-05-18T10:09:05.295Z,4.47
2023-05-18T10:10:07.115Z,4.90
2023-05-18T10:11:05.261Z,4.93
2023-05-18T10:12:05.268Z,5.02
2023-05-18T10:13:05.281Z,4.46
2023-05-18T10:14:05.279Z,3.97
2023-05-18T10:15:05.245Z,5.13
2023-05-18T10:16:05.262Z,5.93
2023-05-18T10:17:15.237Z,4.36
2023-05-18T10:18:06.290Z,4.11
2023-05-18T10:19:05.292Z,4.50
2023-05-18T10:20:05.241Z,4.69
2023-05-18T10:21:05.249Z,4.87
2023-05-18T10:22:05.230Z,3.58
2023-05-18T10:23:05.190Z,3.63
2023-05-18T10:24:05.244Z,2.91
2023-05-18T10:25:05.217Z,3.37
2023-05-18T10:26:05.167Z,4.33
2023-05-18T10:27:05.207Z,5.16
2023-05-18T10:28:05.205Z,7.70
2023-05-18T10:29:05.138Z,7.72
2023-05-18T10:30:05.153Z,6.29
2023-05-18T10:31:05.295Z,6.27
2023-05-18T10:32:07.548Z,7.55
2023-05-18T10:33:11.290Z,5.29
2023-05-18T10:34:06.295Z,3.84
2023-05-18T10:35:05.261Z,2.97
2023-05-18T10:36:05.262Z,3.28
2023-05-18T10:37:05.248Z,3.19
2023-05-18T10:38:05.270Z,4.73
2023-05-18T10:39:05.228Z,3.30
2023-05-18T10:40:05.265Z,2.16
2023-05-18T10:41:05.232Z,2.38
2023-05-18T10:42:05.252Z,1.46
2023-05-18T10:43:05.198Z,1.42
2023-05-18T10:44:05.192Z,1.94
2023-05-18T10:45:05.193Z,1.46
2023-05-18T10:46:05.250Z,0.86
2023-05-18T10:47:05.404Z,0.72
2023-05-18T10:48:05.786Z,0.59
2023-05-18T10:49:05.290Z,0.58
2023-05-18T10:50:05.307Z,0.57
2023-05-18T10:51:05.324Z,0.65
2023-05-18T10:52:05.365Z,0.65
2023-05-18T10:53:05.390Z,0.62
2023-05-18T10:54:05.413Z,0.78
2023-05-18T10:55:05.440Z,0.74
2023-05-18T10:56:05.490Z,0.49
2023-05-18T10:57:05.531Z,0.41
2023-05-18T10:58:05.552Z,0.51
2023-05-18T10:59:05.629Z,0.58
2023-05-18T11:00:05.646Z,0.62
2023-05-18T11:01:05.664Z,0.49
2023-05-18T11:02:05.853Z,0.53
2023-05-18T11:03:05.797Z,0.53
2023-05-18T11:04:05.755Z,0.71
2023-05-18T11:05:05.855Z,0.94
2023-05-18T11:06:05.828Z,1.02
2023-05-18T11:07:05.908Z,1.00
2023-05-18T11:08:05.910Z,0.87
2023-05-18T11:09:05.989Z,0.83
2023-05-18T11:10:05.935Z,0.90
2023-05-18T11:11:06.021Z,1.05
2023-05-18T11:12:06.062Z,1.49
2023-05-18T11:13:06.081Z,1.60
2023-05-18T11:14:06.159Z,1.74
2023-05-18T11:15:06.153Z,1.69
2023-05-18T11:16:06.268Z,2.34
2023-05-18T11:17:06.265Z,2.46
2023-05-18T11:18:06.249Z,2.05
2023-05-18T11:19:06.401Z,1.31
2023-05-18T11:20:06.280Z,0.87
2023-05-18T11:21:06.329Z,0.71
2023-05-18T11:22:06.395Z,0.66
2023-05-18T11:23:06.385Z,0.45
2023-05-18T11:24:06.435Z,0.54
2023-05-18T11:25:06.503Z,0.53
2023-05-18T11:26:06.508Z,0.34
2023-05-18T11:27:06.577Z,0.36
2023-05-18T11:28:06.600Z,0.37
2023-05-18T11:29:06.633Z,0.50
2023-05-18T11:30:15.315Z,0.56
2023-05-18T11:31:07.676Z,0.56
2023-05-18T11:32:06.804Z,0.59
2023-05-18T11:33:06.808Z,0.61
2023-05-18T11:34:06.710Z,0.58
2023-05-18T11:35:06.690Z,0.47
2023-05-18T11:36:06.660Z,0.52
2023-05-18T11:37:06.653Z,0.82
2023-05-18T11:38:06.656Z,0.77
2023-05-18T11:39:06.696Z,0.87
2023-05-18T11:40:09.340Z,1.20
2023-05-18T11:41:06.621Z,0.85
2023-05-18T11:42:06.630Z,0.69
2023-05-18T11:43:06.927Z,1.02
2023-05-18T11:44:06.586Z,1.18
2023-05-18T11:45:06.612Z,1.26
2023-05-18T11:46:06.608Z,1.05
2023-05-18T11:47:06.616Z,0.86
2023-05-18T11:48:06.661Z,0.84
2023-05-18T11:49:06.653Z,0.93
2023-05-18T11:50:06.564Z,0.72
2023-05-18T11:51:06.564Z,0.70
2023-05-18T11:52:06.564Z,0.65
2023-05-18T11:53:06.547Z,0.93
2023-05-18T11:54:06.529Z,1.07
2023-05-18T11:55:06.526Z,1.00
2023-05-18T11:56:06.495Z,0.89
2023-05-18T11:57:06.541Z,0.77
2023-05-18T11:58:06.547Z,0.72
2023-05-18T11:59:06.469Z,0.81
2023-05-18T12:00:06.519Z,1.17
2023-05-18T12:01:06.524Z,1.32
2023-05-18T12:02:06.541Z,1.56
2023-05-18T12:03:06.653Z,1.22
2023-05-18T12:04:06.624Z,0.98
2023-05-18T12:05:06.445Z,0.90
2023-05-18T12:06:06.469Z,0.78
2023-05-18T12:07:06.618Z,0.89
2023-05-18T12:08:06.536Z,1.07
2023-05-18T12:09:06.552Z,0.92
2023-05-18T12:10:06.586Z,0.86
2023-05-18T12:11:06.554Z,0.98
2023-05-18T12:12:06.703Z,0.92
2023-05-18T12:13:06.635Z,1.01
2023-05-18T12:14:06.676Z,1.28
2023-05-18T12:15:06.652Z,1.64
2023-05-18T12:16:06.681Z,2.41
2023-05-18T12:17:06.789Z,3.10
2023-05-18T12:18:06.812Z,2.09
2023-05-18T12:19:06.827Z,2.27
2023-05-18T12:20:06.824Z,2.30
2023-05-18T12:21:06.844Z,1.55
2023-05-18T12:22:06.911Z,1.39
2023-05-18T12:23:06.926Z,1.15
2023-05-18T12:24:06.961Z,1.23
2023-05-18T12:25:07.001Z,1.21
2023-05-18T12:26:07.021Z,1.48
2023-05-18T12:27:07.653Z,1.82
2023-05-18T12:28:07.126Z,2.24
2023-05-18T12:29:07.139Z,2.89
2023-05-18T12:30:07.144Z,2.62
2023-05-18T12:31:07.292Z,2.14
2023-05-18T12:32:07.198Z,2.87
2023-05-18T12:33:07.374Z,4.01
2023-05-18T12:34:07.314Z,7.02
2023-05-18T12:35:07.361Z,6.61
2023-05-18T12:36:07.396Z,4.00
2023-05-18T12:37:07.403Z,3.82
2023-05-18T12:38:07.391Z,3.79
2023-05-18T12:39:07.424Z,3.11
2023-05-18T12:40:07.433Z,2.96
2023-05-18T12:41:07.472Z,3.01
2023-05-18T12:42:07.461Z,3.66
2023-05-18T12:43:07.490Z,4.40
2023-05-18T12:44:07.553Z,3.36
2023-05-18T12:45:09.473Z,2.96
2023-05-18T12:46:07.568Z,2.48
2023-05-18T12:47:07.595Z,2.57
2023-05-18T12:48:07.669Z,3.25
2023-05-18T12:49:07.551Z,2.27
2023-05-18T12:50:07.587Z,2.50
2023-05-18T12:51:07.532Z,3.62
2023-05-18T12:52:07.499Z,2.25
2023-05-18T12:53:07.509Z,2.16
2023-05-18T12:54:07.533Z,1.73
2023-05-18T12:55:08.676Z,1.92
2023-05-18T12:56:07.478Z,1.65
2023-05-18T12:57:07.571Z,1.62
2023-05-18T12:58:07.480Z,1.78
2023-05-18T12:59:07.500Z,1.81
2023-05-18T13:00:07.494Z,2.21
2023-05-18T13:01:07.502Z,2.36
2023-05-18T13:02:07.471Z,3.01
2023-05-18T13:03:07.683Z,3.10
2023-05-18T13:04:07.613Z,2.75
2023-05-18T13:05:07.593Z,1.88
2023-05-18T13:06:07.452Z,1.84
2023-05-18T13:07:07.433Z,1.37
2023-05-18T13:08:07.414Z,1.45
2023-05-18T13:09:07.434Z,2.37
2023-05-18T13:10:07.415Z,2.53
2023-05-18T13:11:13.708Z,2.31
2023-05-18T13:12:08.420Z,2.31
2023-05-18T13:13:07.374Z,2.33